createdAt,value
2018-05-04T00:00:38.745Z,99.90
2018-05-04T00:03:06.216Z,99.90
2018-05-04T00:05:34.433Z,99.90
2018-05-04T00:08:02.673Z,99.90
2018-05-04T00:10:30.128Z,99.90
2018-05-04T00:12:57.596Z,99.90
2018-05-04T00:15:25.060Z,99.90
2018-05-04T00:17:52.516Z,99.90
2018-05-04T00:20:19.986Z,99.90
2018-05-04T00:22:48.351Z,99.90
2018-05-04T00:25:15.832Z,99.90
2018-05-04T00:27:44.659Z,99.90
2018-05-04T00:30:12.159Z,99.90
2018-05-04T00:32:39.618Z,99.90
2018-05-04T00:35:07.136Z,99.90
2018-05-04T00:37:34.600Z,99.90
2018-05-04T00:40:02.079Z,99.90
2018-05-04T00:42:29.547Z,99.90
2018-05-04T00:44:57.018Z,99.90
2018-05-04T00:47:25.252Z,99.90
2018-05-04T00:49:54.157Z,99.90
2018-05-04T00:52:21.614Z,99.90
2018-05-04T00:54:49.122Z,99.90
2018-05-04T00:57:16.588Z,99.90
2018-05-04T00:59:44.063Z,99.90
2018-05-04T01:02:11.644Z,99.90
2018-05-04T01:04:39.064Z,99.90
2018-05-04T01:07:06.537Z,99.90
2018-05-04T01:09:34.028Z,99.90
2018-05-04T01:12:02.263Z,99.90
2018-05-04T01:14:29.725Z,99.90
2018-05-04T01:16:57.200Z,99.90
2018-05-04T01:19:24.666Z,99.90
2018-05-04T01:21:52.140Z,99.90
2018-05-04T01:24:20.365Z,99.90
2018-05-04T01:26:47.936Z,99.90
2018-05-04T01:29:15.400Z,99.90
2018-05-04T01:31:42.909Z,99.90
2018-05-04T01:34:10.391Z,99.90
2018-05-04T01:36:37.861Z,99.90
2018-05-04T01:39:05.380Z,99.90
2018-05-04T01:41:32.852Z,99.90
2018-05-04T01:44:00.307Z,99.90
2018-05-04T01:46:27.787Z,99.90
2018-05-04T01:48:55.244Z,99.90
2018-05-04T01:51:23.682Z,99.90
2018-05-04T01:53:51.136Z,99.90
2018-05-04T01:56:19.371Z,99.90
2018-05-04T01:58:46.858Z,99.90
2018-05-04T02:01:15.122Z,99.90
2018-05-04T02:03:42.581Z,99.90
2018-05-04T02:06:10.825Z,99.90
2018-05-04T02:08:38.320Z,99.90
2018-05-04T02:11:06.556Z,99.90
2018-05-04T02:13:34.036Z,99.90
2018-05-04T02:16:01.500Z,99.90
2018-05-04T02:18:29.740Z,99.90
2018-05-04T02:20:57.209Z,99.90
2018-05-04T02:23:24.681Z,99.90
2018-05-04T02:25:52.133Z,99.90
2018-05-04T02:28:19.599Z,99.90
2018-05-04T02:30:47.833Z,99.90
2018-05-04T02:33:15.304Z,99.90
2018-05-04T02:35:43.688Z,99.90
2018-05-04T02:38:11.160Z,99.90
2018-05-04T02:40:38.627Z,99.90
2018-05-04T02:43:06.148Z,99.90
2018-05-04T02:45:33.617Z,99.90
2018-05-04T02:48:01.107Z,99.90
2018-05-04T02:50:29.337Z,99.90
2018-05-04T02:52:56.802Z,99.90
2018-05-04T02:55:24.359Z,99.90
2018-05-04T02:57:51.857Z,99.90
2018-05-04T03:00:20.107Z,99.90
2018-05-04T03:02:47.563Z,99.90
2018-05-04T03:05:15.025Z,99.90
2018-05-04T03:07:42.507Z,99.90
2018-05-04T03:10:09.973Z,99.90
2018-05-04T03:12:37.424Z,99.90
2018-05-04T03:15:04.907Z,99.90
2018-05-04T03:17:32.377Z,99.90
2018-05-04T03:19:59.842Z,99.90
2018-05-04T03:22:27.312Z,99.90
2018-05-04T03:24:54.778Z,99.90
2018-05-04T03:27:22.231Z,99.90
2018-05-04T03:29:49.704Z,99.90
2018-05-04T03:32:17.930Z,99.90
2018-05-04T03:34:45.395Z,99.90
2018-05-04T03:37:13.874Z,99.90
2018-05-04T03:39:41.354Z,99.90
2018-05-04T03:42:08.824Z,99.90
2018-05-04T03:44:37.048Z,99.90
2018-05-04T03:47:05.386Z,99.90
2018-05-04T03:49:33.615Z,99.90
2018-05-04T03:52:01.101Z,99.90
2018-05-04T03:54:28.546Z,99.90
2018-05-04T04:00:14.032Z,99.90
2018-05-04T04:02:53.714Z,99.90
2018-05-04T04:05:21.210Z,99.90
2018-05-04T04:07:48.693Z,99.90
2018-05-04T04:10:16.231Z,99.90
2018-05-04T04:12:43.712Z,99.90
2018-05-04T04:15:11.189Z,99.90
2018-05-04T04:17:39.465Z,99.90
2018-05-04T04:20:07.696Z,99.90
2018-05-04T04:22:35.174Z,99.90
2018-05-04T04:25:02.657Z,99.90
2018-05-04T04:27:30.677Z,99.90
2018-05-04T04:29:59.201Z,99.90
2018-05-04T04:32:26.690Z,99.90
2018-05-04T04:34:54.265Z,99.90
2018-05-04T04:37:21.815Z,99.90
2018-05-04T04:39:49.414Z,99.90
2018-05-04T04:42:17.727Z,99.90
2018-05-04T04:44:45.192Z,99.90
2018-05-04T04:47:13.469Z,99.90
2018-05-04T04:49:41.797Z,99.90
2018-05-04T04:52:09.280Z,99.90
2018-05-04T04:54:36.791Z,99.90
2018-05-04T04:57:04.267Z,99.90
2018-05-04T04:59:31.753Z,99.90
2018-05-04T05:01:59.289Z,99.90
2018-05-04T05:04:27.509Z,99.90
2018-05-04T05:06:55.019Z,99.90
2018-05-04T05:09:22.514Z,99.90
2018-05-04T05:11:49.994Z,99.90
2018-05-04T05:14:17.508Z,99.90
2018-05-04T05:16:44.993Z,99.90
2018-05-04T05:19:12.475Z,99.90
2018-05-04T05:21:40.722Z,99.90
2018-05-04T05:24:08.236Z,99.90
2018-05-04T05:26:35.725Z,99.90
2018-05-04T05:29:03.227Z,99.90
2018-05-04T05:31:30.747Z,99.90
2018-05-04T05:33:58.811Z,99.90
2018-05-04T05:36:26.302Z,99.90
2018-05-04T05:38:53.793Z,99.90
2018-05-04T05:41:22.085Z,99.90
2018-05-04T05:43:49.584Z,99.90
2018-05-04T05:46:17.463Z,99.90
2018-05-04T05:48:44.983Z,99.90
2018-05-04T05:51:12.510Z,99.90
2018-05-04T05:53:40.775Z,99.90
2018-05-04T05:56:09.045Z,99.80
2018-05-04T05:58:37.337Z,99.50
2018-05-04T06:01:04.825Z,99.50
2018-05-04T06:03:32.323Z,97.60
2018-05-04T06:06:03.261Z,97.50
2018-05-04T06:08:32.126Z,96.80
2018-05-04T06:10:59.773Z,97.40
2018-05-04T06:13:27.302Z,96.60
2018-05-04T06:15:54.838Z,95.60
2018-05-04T06:18:22.428Z,95.10
2018-05-04T06:20:49.926Z,95.60
2018-05-04T06:23:18.153Z,91.60
2018-05-04T06:25:45.767Z,91.60
2018-05-04T06:28:13.242Z,90.60
2018-05-04T06:30:40.721Z,90.20
2018-05-04T06:33:08.242Z,90.20
2018-05-04T06:35:35.760Z,90.00
2018-05-04T06:38:03.280Z,89.10
2018-05-04T06:40:31.004Z,86.50
2018-05-04T06:42:58.492Z,84.80
2018-05-04T06:45:26.031Z,82.10
2018-05-04T06:47:53.577Z,78.70
2018-05-04T06:50:21.844Z,78.90
2018-05-04T06:52:49.348Z,78.80
2018-05-04T06:55:16.872Z,76.70
2018-05-04T06:57:45.132Z,73.40
2018-05-04T07:00:12.598Z,73.20
2018-05-04T07:02:40.854Z,70.40
2018-05-04T07:05:08.337Z,70.30
2018-05-04T07:07:36.596Z,69.70
2018-05-04T07:10:04.070Z,69.70
2018-05-04T07:12:31.571Z,68.70
2018-05-04T07:14:59.142Z,68.80
2018-05-04T07:17:26.574Z,66.80
2018-05-04T07:19:54.119Z,67.10
2018-05-04T07:22:22.379Z,63.90
2018-05-04T07:24:49.863Z,63.80
2018-05-04T07:27:17.370Z,62.30
2018-05-04T07:29:44.849Z,61.80
2018-05-04T07:32:12.345Z,58.90
2018-05-04T07:34:39.816Z,58.70
2018-05-04T07:37:07.564Z,59.60
2018-05-04T07:39:35.051Z,58.00
2018-05-04T07:42:02.895Z,59.30
2018-05-04T07:44:30.381Z,61.00
2018-05-04T07:46:57.881Z,61.90
2018-05-04T07:49:25.555Z,63.50
2018-05-04T07:51:53.644Z,61.80
2018-05-04T07:54:21.159Z,59.60
2018-05-04T07:56:48.653Z,61.00
2018-05-04T07:59:16.902Z,54.10
2018-05-04T08:01:44.396Z,53.90
2018-05-04T08:04:12.704Z,53.70
2018-05-04T08:06:40.211Z,53.60
2018-05-04T08:09:07.780Z,53.80
2018-05-04T08:11:36.022Z,54.50
2018-05-04T08:14:03.785Z,54.50
2018-05-04T08:16:31.250Z,53.60
2018-05-04T08:18:58.726Z,53.10
2018-05-04T08:21:26.229Z,53.40
2018-05-04T08:23:53.710Z,53.70
2018-05-04T08:26:21.287Z,53.00
2018-05-04T08:28:48.767Z,52.60
2018-05-04T08:31:16.244Z,48.90
2018-05-04T08:33:44.575Z,49.30
2018-05-04T08:36:12.068Z,49.20
2018-05-04T08:38:40.334Z,46.40
2018-05-04T08:41:07.814Z,46.40
2018-05-04T08:43:36.048Z,45.70
2018-05-04T08:46:03.522Z,45.60
2018-05-04T08:48:31.001Z,51.00
2018-05-04T08:50:59.323Z,49.10
2018-05-04T08:53:26.763Z,49.10
2018-05-04T08:55:54.285Z,48.80
2018-05-04T08:58:21.816Z,49.30
2018-05-04T09:00:50.020Z,51.20
2018-05-04T09:03:17.536Z,50.60
2018-05-04T09:05:45.603Z,50.20
2018-05-04T09:08:12.992Z,49.10
2018-05-04T09:10:40.477Z,49.80
2018-05-04T09:13:07.945Z,51.20
2018-05-04T09:15:36.195Z,50.00
2018-05-04T09:18:03.676Z,50.00
2018-05-04T09:20:31.946Z,48.00
2018-05-04T09:23:00.179Z,48.90
2018-05-04T09:25:27.734Z,48.80
2018-05-04T09:27:55.216Z,48.80
2018-05-04T09:30:22.719Z,48.80
2018-05-04T09:32:50.946Z,48.60
2018-05-04T09:35:18.417Z,48.60
2018-05-04T09:37:45.944Z,49.10
2018-05-04T09:40:13.439Z,49.50
2018-05-04T09:42:40.941Z,50.00
2018-05-04T09:45:08.721Z,48.70
2018-05-04T09:47:36.209Z,48.30
2018-05-04T09:50:03.742Z,47.80
2018-05-04T09:52:31.201Z,47.80
2018-05-04T09:54:58.717Z,45.80
2018-05-04T09:57:26.237Z,46.70
2018-05-04T09:59:53.704Z,44.20
2018-05-04T10:02:21.209Z,44.20
2018-05-04T10:04:49.455Z,44.30
2018-05-04T10:07:16.974Z,44.20
2018-05-04T10:09:44.451Z,44.00
2018-05-04T10:12:11.910Z,45.30
2018-05-04T10:14:39.424Z,46.70
2018-05-04T10:17:07.699Z,47.90
2018-05-04T10:19:35.407Z,47.80
2018-05-04T10:22:02.931Z,47.40
2018-05-04T10:24:30.377Z,48.30
2018-05-04T10:26:58.644Z,48.40
2018-05-04T10:29:26.251Z,48.30
2018-05-04T10:31:54.035Z,47.70
2018-05-04T10:34:21.542Z,47.70
2018-05-04T10:36:49.805Z,46.70
2018-05-04T10:39:17.311Z,46.80
2018-05-04T10:41:45.792Z,46.10
2018-05-04T10:44:13.360Z,48.40
2018-05-04T10:46:40.837Z,49.80
2018-05-04T10:49:08.340Z,50.60
2018-05-04T10:51:36.622Z,48.90
2018-05-04T10:54:04.205Z,48.80
2018-05-04T10:56:31.747Z,47.00
2018-05-04T10:58:59.208Z,47.10
2018-05-04T11:01:26.676Z,44.50
2018-05-04T11:03:54.148Z,44.70
2018-05-04T11:06:21.620Z,46.20
2018-05-04T11:08:49.085Z,46.60
2018-05-04T11:11:16.717Z,46.30
2018-05-04T11:13:44.216Z,46.90
2018-05-04T11:16:12.205Z,46.80
2018-05-04T11:18:39.677Z,48.90
2018-05-04T11:21:07.928Z,47.30
2018-05-04T11:23:35.416Z,47.30
2018-05-04T11:26:04.159Z,45.00
2018-05-04T11:28:32.419Z,46.60
2018-05-04T11:31:03.059Z,46.90
2018-05-04T11:33:30.598Z,46.10
2018-05-04T11:35:59.006Z,46.00
2018-05-04T11:38:26.497Z,46.20
2018-05-04T11:40:54.017Z,45.80
2018-05-04T11:43:21.496Z,45.80
2018-05-04T11:45:50.817Z,45.30
2018-05-04T11:48:19.104Z,48.20
2018-05-04T11:50:47.344Z,49.50
2018-05-04T11:53:14.841Z,49.50
2018-05-04T11:55:43.224Z,49.60
2018-05-04T11:58:11.471Z,49.80
2018-05-04T12:00:38.930Z,49.70
2018-05-04T12:03:06.419Z,48.40
2018-05-04T12:05:33.922Z,49.80
2018-05-04T12:08:01.402Z,49.70
2018-05-04T12:10:28.874Z,49.30
2018-05-04T12:12:56.384Z,50.60
2018-05-04T12:15:23.880Z,52.40
2018-05-04T12:17:51.367Z,50.30
2018-05-04T12:20:19.704Z,50.70
2018-05-04T12:22:47.213Z,50.70
2018-05-04T12:25:15.534Z,50.70
2018-05-04T12:27:43.037Z,50.60
2018-05-04T12:33:23.652Z,50.90
2018-05-04T12:35:51.132Z,52.00
2018-05-04T12:38:18.610Z,53.00
2018-05-04T12:40:46.085Z,51.30
2018-05-04T12:43:15.350Z,50.80
2018-05-04T12:45:42.837Z,50.90
2018-05-04T12:48:10.297Z,51.00
2018-05-04T12:50:37.777Z,51.10
2018-05-04T12:53:06.021Z,50.20
2018-05-04T12:55:34.166Z,49.70
2018-05-04T12:58:01.653Z,49.70
2018-05-04T13:00:29.450Z,48.90
2018-05-04T13:02:56.926Z,48.90
2018-05-04T13:05:25.159Z,49.10
2018-05-04T13:07:52.616Z,49.10
2018-05-04T13:10:20.115Z,48.30
2018-05-04T13:12:47.608Z,49.60
2018-05-04T13:15:15.114Z,50.20
2018-05-04T13:17:43.499Z,49.50
2018-05-04T13:20:10.997Z,49.40
2018-05-04T13:22:38.466Z,50.40
2018-05-04T13:25:05.953Z,49.20
2018-05-04T13:27:33.445Z,50.70
2018-05-04T13:30:00.908Z,49.50
2018-05-04T13:32:29.157Z,49.30
2018-05-04T13:34:56.672Z,49.20
2018-05-04T13:37:24.165Z,49.70
2018-05-04T13:39:51.695Z,49.40
2018-05-04T13:42:19.180Z,50.80
2018-05-04T13:44:46.675Z,49.60
2018-05-04T13:47:14.142Z,49.90
2018-05-04T13:49:42.422Z,50.10
2018-05-04T13:52:10.665Z,51.10
2018-05-04T13:54:38.135Z,51.10
2018-05-04T13:57:05.792Z,50.50
2018-05-04T13:59:33.281Z,49.20
2018-05-04T14:02:01.618Z,51.10
2018-05-04T14:04:29.100Z,51.10
2018-05-04T14:06:56.585Z,49.80
2018-05-04T14:09:25.297Z,49.60
2018-05-04T14:11:52.771Z,49.60
2018-05-04T14:14:20.257Z,49.30
2018-05-04T14:16:47.737Z,48.60
2018-05-04T14:19:16.165Z,50.40
2018-05-04T14:21:43.628Z,50.40
2018-05-04T14:24:11.117Z,48.60
2018-05-04T14:29:10.322Z,48.50
2018-05-04T14:31:37.792Z,49.90
2018-05-04T14:34:06.066Z,51.00
2018-05-04T14:36:33.795Z,51.00
2018-05-04T14:39:01.418Z,49.10
2018-05-04T14:41:29.636Z,48.50
2018-05-04T14:43:57.155Z,48.40
2018-05-04T14:46:25.410Z,49.20
2018-05-04T14:48:53.013Z,49.10
2018-05-04T14:51:20.859Z,48.80
2018-05-04T14:53:48.312Z,50.40
2018-05-04T14:56:16.577Z,48.70
2018-05-04T14:58:44.107Z,48.70
2018-05-04T15:01:11.593Z,49.70
2018-05-04T15:03:39.294Z,49.80
2018-05-04T15:06:06.774Z,49.90
2018-05-04T15:08:34.317Z,50.60
2018-05-04T15:11:01.797Z,48.60
2018-05-04T15:13:29.341Z,49.40
2018-05-04T15:15:56.888Z,49.40
2018-05-04T15:18:24.351Z,50.80
2018-05-04T15:20:51.834Z,50.20
2018-05-04T15:23:19.307Z,49.60
2018-05-04T15:25:46.785Z,49.70
2018-05-04T15:28:14.280Z,50.00
2018-05-04T15:30:41.955Z,49.30
2018-05-04T15:33:09.435Z,50.20
2018-05-04T15:35:36.936Z,48.90
2018-05-04T15:38:05.458Z,50.30
2018-05-04T15:40:33.111Z,50.20
2018-05-04T15:43:00.511Z,49.20
2018-05-04T15:45:28.423Z,48.80
2018-05-04T15:47:55.914Z,49.00
2018-05-04T15:50:29.200Z,49.30
2018-05-04T15:52:56.858Z,50.30
2018-05-04T15:55:25.363Z,49.30
2018-05-04T15:57:52.841Z,50.10
2018-05-04T16:00:20.307Z,50.90
2018-05-04T16:02:47.801Z,49.70
2018-05-04T16:05:16.068Z,50.10
2018-05-04T16:07:44.323Z,49.80
2018-05-04T16:10:11.785Z,49.80
2018-05-04T16:12:39.282Z,49.80
2018-05-04T16:15:06.774Z,49.80
2018-05-04T16:17:34.245Z,49.80
2018-05-04T16:20:01.764Z,50.00
2018-05-04T16:22:29.287Z,50.20
2018-05-04T16:24:56.750Z,50.60
2018-05-04T16:27:25.548Z,50.50
2018-05-04T16:29:53.810Z,50.70
2018-05-04T16:32:22.056Z,52.00
2018-05-04T16:34:49.553Z,51.20
2018-05-04T16:37:17.795Z,50.90
2018-05-04T16:39:45.304Z,50.90
2018-05-04T16:42:13.539Z,51.70
2018-05-04T16:44:41.062Z,51.70
2018-05-04T16:47:14.249Z,51.90
2018-05-04T16:49:41.737Z,51.80
2018-05-04T16:52:09.229Z,50.70
2018-05-04T16:54:36.723Z,51.60
2018-05-04T16:57:04.206Z,51.70
2018-05-04T16:59:31.724Z,51.60
2018-05-04T17:02:00.007Z,51.90
2018-05-04T17:04:28.433Z,52.30
2018-05-04T17:06:55.962Z,52.30
2018-05-04T17:09:23.493Z,52.90
2018-05-04T17:11:51.821Z,53.20
2018-05-04T17:14:19.329Z,53.20
2018-05-04T17:16:46.844Z,53.60
2018-05-04T17:19:14.317Z,53.40
2018-05-04T17:21:41.827Z,53.60
2018-05-04T17:24:10.074Z,53.20
2018-05-04T17:26:37.563Z,53.20
2018-05-04T17:29:05.086Z,53.00
2018-05-04T17:31:32.559Z,53.60
2018-05-04T17:34:00.858Z,54.30
2018-05-04T17:36:29.528Z,55.40
2018-05-04T17:38:57.756Z,55.60
2018-05-04T17:41:25.263Z,55.60
2018-05-04T17:43:53.512Z,56.50
2018-05-04T17:46:21.089Z,55.90
2018-05-04T17:48:48.607Z,56.10
2018-05-04T17:51:16.131Z,55.80
2018-05-04T17:53:44.369Z,56.10
2018-05-04T17:56:12.117Z,56.00
2018-05-04T17:58:39.612Z,56.20
2018-05-04T18:01:07.107Z,56.20
2018-05-04T18:03:34.615Z,56.40
2018-05-04T18:06:02.444Z,56.40
2018-05-04T18:08:29.961Z,56.40
2018-05-04T18:10:57.456Z,56.50
2018-05-04T18:13:24.943Z,57.00
2018-05-04T18:15:52.401Z,57.50
2018-05-04T18:18:19.885Z,57.40
2018-05-04T18:20:47.393Z,57.60
2018-05-04T18:23:14.885Z,58.00
2018-05-04T18:25:42.365Z,57.80
2018-05-04T18:28:10.156Z,58.10
2018-05-04T18:30:38.411Z,59.10
2018-05-04T18:33:06.034Z,59.10
2018-05-04T18:35:34.226Z,59.40
2018-05-04T18:38:03.229Z,60.40
2018-05-04T18:40:31.087Z,60.30
2018-05-04T18:42:58.572Z,61.10
2018-05-04T18:45:26.401Z,61.30
2018-05-04T18:47:53.866Z,61.90
2018-05-04T18:50:21.354Z,62.30
2018-05-04T18:52:48.829Z,63.30
2018-05-04T18:55:17.101Z,63.90
2018-05-04T18:57:45.501Z,64.20
2018-05-04T19:00:12.985Z,64.10
2018-05-04T19:02:46.104Z,65.00
2018-05-04T19:05:14.689Z,65.80
2018-05-04T19:07:42.168Z,66.40
2018-05-04T19:10:10.179Z,66.70
2018-05-04T19:12:37.898Z,67.10
2018-05-04T19:15:06.318Z,68.70
2018-05-04T19:17:33.949Z,68.70
2018-05-04T19:20:02.211Z,69.80
2018-05-04T19:22:29.814Z,69.80
2018-05-04T19:24:57.858Z,70.40
2018-05-04T19:27:26.547Z,72.40
2018-05-04T19:29:54.986Z,73.30
2018-05-04T19:32:22.844Z,73.40
2018-05-04T19:34:50.372Z,74.40
2018-05-04T19:37:17.876Z,75.30
2018-05-04T19:39:46.158Z,76.80
2018-05-04T19:42:14.136Z,77.80
2018-05-04T19:44:41.622Z,79.80
2018-05-04T19:47:09.226Z,80.60
2018-05-04T19:49:37.279Z,82.10
2018-05-04T19:52:05.550Z,85.50
2018-05-04T19:54:34.225Z,87.40
2018-05-04T19:57:03.662Z,89.00
2018-05-04T19:59:31.616Z,89.10
2018-05-04T20:01:59.915Z,90.00
2018-05-04T20:04:27.609Z,91.00
2018-05-04T20:06:55.210Z,92.30
2018-05-04T20:09:22.723Z,94.00
2018-05-04T20:11:50.292Z,95.00
2018-05-04T20:14:17.832Z,95.10
2018-05-04T20:16:45.503Z,96.20
2018-05-04T20:19:13.515Z,97.70
2018-05-04T20:21:41.798Z,99.50
2018-05-04T20:24:10.346Z,99.50
2018-05-04T20:26:38.015Z,99.90
2018-05-04T20:29:05.700Z,99.90
2018-05-04T20:31:33.443Z,99.90
2018-05-04T20:34:01.440Z,99.90
2018-05-04T20:36:28.934Z,99.90
2018-05-04T20:38:57.230Z,99.90
2018-05-04T20:41:24.716Z,99.90
2018-05-04T20:43:52.190Z,99.90
2018-05-04T20:46:19.999Z,99.90
2018-05-04T20:48:48.253Z,99.90
2018-05-04T20:51:15.868Z,99.90
2018-05-04T20:53:43.448Z,99.90
2018-05-04T20:56:10.989Z,99.90
2018-05-04T20:58:38.758Z,99.90
2018-05-04T21:01:06.283Z,99.90
2018-05-04T21:03:33.765Z,99.90
2018-05-04T21:06:02.035Z,99.90
2018-05-04T21:08:29.548Z,99.90
2018-05-04T21:10:57.058Z,99.90
2018-05-04T21:13:24.533Z,99.90
2018-05-04T21:15:52.040Z,99.90
2018-05-04T21:18:19.543Z,99.90
2018-05-04T21:20:47.068Z,99.90
2018-05-04T21:23:15.325Z,99.90
2018-05-04T21:25:43.156Z,99.90
2018-05-04T21:28:10.656Z,99.90
2018-05-04T21:30:39.655Z,99.90
2018-05-04T21:33:07.227Z,99.90
2018-05-04T21:35:34.644Z,99.90
2018-05-04T21:38:02.183Z,99.90
2018-05-04T21:40:29.651Z,99.90
2018-05-04T21:42:57.122Z,99.90
2018-05-04T21:45:24.594Z,99.90
2018-05-04T21:47:52.116Z,99.90
2018-05-04T21:50:19.573Z,99.90
2018-05-04T21:52:47.102Z,99.90
2018-05-04T21:55:15.380Z,99.90
2018-05-04T21:57:43.680Z,99.90
2018-05-04T22:00:11.225Z,99.90
2018-05-04T22:02:39.471Z,99.90
2018-05-04T22:05:06.943Z,99.90
2018-05-04T22:07:35.291Z,99.90
2018-05-04T22:10:02.745Z,99.90
2018-05-04T22:12:30.212Z,99.90
2018-05-04T22:14:57.915Z,99.90
2018-05-04T22:17:26.183Z,99.90
2018-05-04T22:19:54.440Z,99.90
2018-05-04T22:22:22.687Z,99.90
2018-05-04T22:24:50.176Z,99.90
2018-05-04T22:27:17.675Z,99.90
2018-05-04T22:29:45.373Z,99.90
2018-05-04T22:32:12.913Z,99.90
2018-05-04T22:34:41.149Z,99.90
2018-05-04T22:37:09.400Z,99.90
2018-05-04T22:39:36.924Z,99.90
2018-05-04T22:42:04.425Z,99.90
2018-05-04T22:44:31.896Z,99.90
2018-05-04T22:47:00.154Z,99.90
2018-05-04T22:49:27.617Z,99.90
2018-05-04T22:51:56.605Z,99.90
2018-05-04T22:54:24.082Z,99.90
2018-05-04T22:56:51.570Z,99.90
2018-05-04T22:59:19.075Z,99.90
2018-05-04T23:01:46.780Z,99.90
2018-05-04T23:04:15.071Z,99.90
2018-05-04T23:06:42.585Z,99.90
2018-05-04T23:09:10.092Z,99.90
2018-05-04T23:11:37.594Z,99.90
2018-05-04T23:14:05.058Z,99.90
2018-05-04T23:16:32.538Z,99.90
2018-05-04T23:19:00.019Z,99.90
2018-05-04T23:21:28.323Z,99.90
2018-05-04T23:23:55.793Z,99.90
2018-05-04T23:26:23.273Z,99.90
2018-05-04T23:28:50.962Z,99.90
2018-05-04T23:31:19.293Z,99.90
2018-05-04T23:33:46.870Z,99.90
2018-05-04T23:36:14.337Z,99.90
2018-05-04T23:38:41.829Z,99.90
2018-05-04T23:41:10.040Z,99.90
2018-05-04T23:43:37.568Z,99.90
2018-05-04T23:46:05.799Z,99.90
2018-05-04T23:48:34.268Z,99.90
2018-05-04T23:51:01.742Z,99.90
2018-05-04T23:53:29.217Z,99.90
2018-05-04T23:55:56.696Z,99.90
2018-05-04T23:58:24.946Z,99.90
